Terminal Aerodrome Forecast
Issued by NWS

Home | Current Version | Previous Version | Text Only | Print | Product List | Glossary On
Versions: 1 2 3 4 5 6 7 8 9 10 11 12 13 14 15 16 17 18 19 20 21 22 23 24 25 26 27 28
000
FTUS41 KOKX 211700
TAFGON
TAF
KGON 211731Z 2118/2218 13010KT P6SM SCT050 BKN120
     FM220000 09004KT P6SM BKN050 BKN100
     FM220600 07004KT 6SM BR FEW020 BKN040
      TEMPO 2208/2212 5SM -SHRA BKN020
     FM221400 10004KT 5SM BR VCSH BKN015 OVC030=

USA.gov is the U.S. government's official web portal to all federal, state and local government web resources and services.